createdAt,value
2018-04-17T00:00:10.117Z,3.36
2018-04-17T00:10:07.881Z,3.36
2018-04-17T00:20:02.981Z,3.36
2018-04-17T00:30:00.338Z,3.36
2018-04-17T00:39:59.106Z,3.36
2018-04-17T00:49:56.099Z,3.36
2018-04-17T00:59:51.637Z,3.36
2018-04-17T01:09:49.545Z,3.36
2018-04-17T01:19:48.159Z,3.36
2018-04-17T01:29:46.315Z,3.36
2018-04-17T01:39:43.736Z,3.36
2018-04-17T01:49:40.652Z,3.35
2018-04-17T01:59:37.008Z,3.35
2018-04-17T02:09:35.490Z,3.35
2018-04-17T02:19:32.729Z,3.34
2018-04-17T02:29:30.743Z,3.35
2018-04-17T02:39:27.335Z,3.34
2018-04-17T02:49:24.084Z,3.34
2018-04-17T02:59:22.514Z,3.34
2018-04-17T03:09:21.106Z,3.34
2018-04-17T03:19:18.248Z,3.34
2018-04-17T03:29:14.153Z,3.34
2018-04-17T03:39:12.078Z,3.34
2018-04-17T03:49:09.803Z,3.34
2018-04-17T03:59:06.930Z,3.34
2018-04-17T04:09:03.502Z,3.34
2018-04-17T04:19:01.290Z,3.34
2018-04-17T04:28:59.413Z,3.34
2018-04-17T04:38:53.319Z,3.34
2018-04-17T04:48:51.884Z,3.34
2018-04-17T04:58:46.835Z,3.34
2018-04-17T05:08:43.565Z,3.35
2018-04-17T05:18:41.625Z,3.36
2018-04-17T05:28:40.165Z,3.37
2018-04-17T05:38:36.282Z,3.37
2018-04-17T05:48:33.448Z,3.39
2018-04-17T05:58:29.283Z,3.40
2018-04-17T06:08:27.621Z,3.40
2018-04-17T06:18:24.335Z,3.41
2018-04-17T06:28:19.262Z,3.40
2018-04-17T06:38:16.821Z,3.41
2018-04-17T06:48:12.841Z,3.41
2018-04-17T06:58:08.280Z,3.43
2018-04-17T07:08:02.487Z,3.44
2018-04-17T07:17:58.135Z,3.42
2018-04-17T07:27:51.477Z,3.41
2018-04-17T07:37:46.952Z,3.41
2018-04-17T07:47:40.331Z,3.42
2018-04-17T07:57:35.543Z,3.41
2018-04-17T08:07:32.445Z,3.41
2018-04-17T08:17:26.997Z,3.41
2018-04-17T08:27:22.275Z,3.41
2018-04-17T08:37:20.254Z,3.42
2018-04-17T08:47:18.710Z,3.42
2018-04-17T08:57:11.097Z,3.42
2018-04-17T09:07:08.092Z,3.42
2018-04-17T09:17:05.217Z,3.42
2018-04-17T09:27:00.936Z,3.42
2018-04-17T09:36:56.946Z,3.42
2018-04-17T09:46:51.689Z,3.41
2018-04-17T09:56:46.044Z,3.42
2018-04-17T10:06:44.388Z,3.42
2018-04-17T10:16:21.425Z,3.42
2018-04-17T10:25:59.027Z,3.42
2018-04-17T10:35:36.372Z,3.42
2018-04-17T10:45:13.819Z,3.42
2018-04-17T10:54:50.323Z,3.42
2018-04-17T11:04:28.079Z,3.42
2018-04-17T11:14:05.488Z,3.42
2018-04-17T11:23:43.361Z,3.42
2018-04-17T11:33:21.017Z,3.42
2018-04-17T11:42:57.496Z,3.42
2018-04-17T11:52:34.352Z,3.42
2018-04-17T12:02:11.282Z,3.42
2018-04-17T12:11:48.406Z,3.42
2018-04-17T12:21:26.688Z,3.42
2018-04-17T12:31:05.893Z,3.42
2018-04-17T12:40:44.449Z,3.42
2018-04-17T12:50:23.292Z,3.42
2018-04-17T12:59:59.685Z,3.42
2018-04-17T13:09:37.007Z,3.42
2018-04-17T13:19:12.587Z,3.42
2018-04-17T13:28:52.160Z,3.42
2018-04-17T13:38:29.883Z,3.42
2018-04-17T13:48:06.336Z,3.42
2018-04-17T13:57:48.630Z,3.42
2018-04-17T14:07:32.545Z,3.42
2018-04-17T14:17:08.708Z,3.42
2018-04-17T14:26:43.147Z,3.43
2018-04-17T14:36:20.974Z,3.42
2018-04-17T14:45:47.550Z,3.42
2018-04-17T14:55:23.229Z,3.42
2018-04-17T15:05:07.011Z,3.42
2018-04-17T15:14:49.150Z,3.42
2018-04-17T15:24:36.343Z,3.43
2018-04-17T15:34:07.461Z,3.43
2018-04-17T15:43:43.109Z,3.42
2018-04-17T15:53:23.397Z,3.42
2018-04-17T16:02:54.205Z,3.42
2018-04-17T16:12:23.920Z,3.42
2018-04-17T16:21:51.233Z,3.41
2018-04-17T16:31:27.107Z,3.44
2018-04-17T16:41:03.382Z,3.45
2018-04-17T16:50:39.475Z,3.46
2018-04-17T17:00:15.529Z,3.44
2018-04-17T17:09:51.582Z,3.43
2018-04-17T17:19:28.630Z,3.43
2018-04-17T17:29:04.154Z,3.43
2018-04-17T17:38:58.893Z,3.43
2018-04-17T17:48:52.324Z,3.42
2018-04-17T17:58:46.387Z,3.42
2018-04-17T18:08:41.176Z,3.42
2018-04-17T18:18:37.224Z,3.42
2018-04-17T18:28:32.863Z,3.41
2018-04-17T18:38:26.402Z,3.41
2018-04-17T18:48:22.181Z,3.41
2018-04-17T18:58:19.139Z,3.40
2018-04-17T19:08:15.079Z,3.40
2018-04-17T19:18:11.524Z,3.40
2018-04-17T19:28:06.740Z,3.40
2018-04-17T19:38:02.723Z,3.40
2018-04-17T19:47:59.042Z,3.40
2018-04-17T19:57:52.646Z,3.39
2018-04-17T20:07:48.418Z,3.39
2018-04-17T20:17:44.062Z,3.39
2018-04-17T20:27:39.539Z,3.39
2018-04-17T20:37:35.638Z,3.39
2018-04-17T20:47:33.217Z,3.39
2018-04-17T20:57:29.245Z,3.39
2018-04-17T21:07:23.075Z,3.39
2018-04-17T21:17:20.562Z,3.39
2018-04-17T21:27:18.044Z,3.39
2018-04-17T21:37:13.199Z,3.38
2018-04-17T21:47:09.521Z,3.38
2018-04-17T21:57:07.519Z,3.38
2018-04-17T22:07:04.476Z,3.38
2018-04-17T22:16:58.880Z,3.38
2018-04-17T22:26:54.450Z,3.37
2018-04-17T22:36:50.205Z,3.37
2018-04-17T22:46:46.860Z,3.37
2018-04-17T22:56:45.769Z,3.37
2018-04-17T23:06:40.885Z,3.37
2018-04-17T23:16:36.213Z,3.37
2018-04-17T23:26:34.029Z,3.37
2018-04-17T23:36:29.813Z,3.37
2018-04-17T23:46:25.367Z,3.36
2018-04-17T23:56:22.420Z,3.36
